»·PEaware :: ASA327 KBOI-KSEA

ASA327 :: KBOI-KSEA

FLIGHT INFORMATION

Flight Status: Arrived
Operator:
Alaska Airlines
More flights by this operator :: More flights under this callsign
Pilot: Jim M. (18055)
Aircraft: BOEING 737-800
(B738)
More flights by this aircraft type
Origin: KBOI Boise Air Terminal/Gowen
United States
Destination: KSEA Seattle-Tacoma Intl
United States
More flights between these airports :: More routes between these airports
Route: BOI3 LICKS PREIS PDT CHINS3
File this flight plan on PilotEdge
Remarks:
Altitude:
(Current/Filed)
34,000ft
Speed:
(Current/Filed)
450kts
Departed: 18-Sep-18 02:59 PM
Arrived: 18-Sep-18 04:08 PM
Distance/Time
Traveled:
344nm/1:09
Distance/Time
To Go:
Arrived

Flight Plot

Page will automatically refresh every two minutes.

Flight plan parsing failed; only flown route is shown


Map Options




Map Legend


Flown Route
Filed Route
Departure Airport
Arrival Airport
Navaid (VOR, NDB)
Fix

Horizontal Profiles

Position Reports

Time Latitude Longitude Heading Altitude Ground
Speed
18-Sep-18 14:25 43.567327 -116.218222 257 2879ft 0kts
18-Sep-18 14:26 43.567327 -116.218222 257 2879ft 0kts
18-Sep-18 14:27 43.567327 -116.218222 257 2879ft 0kts
18-Sep-18 14:28 43.567327 -116.218222 257 2879ft 0kts
18-Sep-18 14:29 43.567327 -116.218222 257 2879ft 0kts
18-Sep-18 14:30 43.567327 -116.218222 257 2878ft 0kts
18-Sep-18 14:31 43.567327 -116.218222 257 2878ft 0kts
18-Sep-18 14:32 43.567327 -116.218222 257 2878ft 0kts
18-Sep-18 14:33 43.567327 -116.218222 257 2878ft 0kts
18-Sep-18 14:34 43.567327 -116.218222 257 2878ft 0kts
18-Sep-18 14:35 43.567327 -116.218222 257 2878ft 0kts
18-Sep-18 14:36 43.567327 -116.218222 257 2878ft 0kts
18-Sep-18 14:37 43.567327 -116.218222 257 2878ft 0kts
18-Sep-18 14:38 43.567327 -116.218222 257 2878ft 0kts
18-Sep-18 14:39 43.567327 -116.218222 257 2878ft 0kts
18-Sep-18 14:40 43.567327 -116.218222 257 2878ft 0kts
18-Sep-18 14:41 43.567327 -116.218222 257 2878ft 0kts
18-Sep-18 14:42 43.567327 -116.218222 257 2878ft 0kts
18-Sep-18 14:43 43.567327 -116.218222 257 2878ft 0kts
18-Sep-18 14:44 43.567327 -116.218222 257 2878ft 0kts
18-Sep-18 14:45 43.567327 -116.218222 257 2878ft 0kts
18-Sep-18 14:46 43.567374 -116.217951 255 2878ft 2kts
18-Sep-18 14:47 43.567630 -116.217292 161 2878ft 2kts
18-Sep-18 14:48 43.567698 -116.217452 112 2878ft 0kts
18-Sep-18 14:49 43.567698 -116.217452 112 2878ft 0kts
18-Sep-18 14:50 43.567698 -116.217452 112 2878ft 0kts
18-Sep-18 14:51 43.567624 -116.217211 112 2878ft 7kts
18-Sep-18 14:52 43.566922 -116.216944 226 2878ft 3kts
18-Sep-18 14:53 43.566323 -116.217457 198 2878ft 5kts
18-Sep-18 14:54 43.565680 -116.216379 153 2878ft 2kts
18-Sep-18 14:55 43.563986 -116.214802 115 2878ft 12kts
18-Sep-18 14:56 43.562748 -116.211068 118 2878ft 12kts
18-Sep-18 14:57 43.561236 -116.206621 115 2878ft 11kts
18-Sep-18 14:58 43.560401 -116.204121 113 2878ft 4kts
18-Sep-18 14:59 43.559474 -116.202613 198 2878ft 0kts
18-Sep-18 15:00 43.558939 -116.202892 208 2878ft 5kts
18-Sep-18 15:01 43.561435 -116.211368 298 2879ft 107kts
18-Sep-18 15:02 43.572942 -116.269255 273 4695ft 179kts
18-Sep-18 15:03 43.590888 -116.333304 290 6842ft 192kts
18-Sep-18 15:04 43.618454 -116.413571 316 7969ft 271kts
18-Sep-18 15:05 43.690392 -116.460746 335 10572ft 298kts
18-Sep-18 15:06 43.775439 -116.510827 335 11827ft 368kts
18-Sep-18 15:07 43.873054 -116.568133 334 14203ft 389kts
18-Sep-18 15:08 43.974582 -116.628223 333 16793ft 403kts
18-Sep-18 15:09 44.064942 -116.681993 332 18875ft 415kts
18-Sep-18 15:10 44.166225 -116.761362 316 21003ft 420kts
18-Sep-18 15:11 44.251167 -116.874664 309 22927ft 428kts
18-Sep-18 15:12 44.336705 -116.993540 309 24617ft 439kts
18-Sep-18 15:13 44.424321 -117.115206 309 26157ft 449kts
18-Sep-18 15:14 44.514276 -117.239488 309 27523ft 458kts
18-Sep-18 15:15 44.605336 -117.366276 308 28933ft 461kts
18-Sep-18 15:16 44.695526 -117.492563 308 30576ft 457kts
18-Sep-18 15:17 44.785134 -117.618660 307 32103ft 453kts
18-Sep-18 15:18 44.873631 -117.743784 306 33514ft 449kts
18-Sep-18 15:19 44.962428 -117.868439 306 34091ft 449kts
18-Sep-18 15:20 45.059716 -117.980510 321 34135ft 464kts
18-Sep-18 15:21 45.186590 -118.040928 348 33289ft 503kts
18-Sep-18 15:22 45.326152 -118.012507 19 33159ft 516kts
18-Sep-18 15:23 45.456310 -117.923295 20 32720ft 523kts
18-Sep-18 15:24 45.589907 -117.846980 13 33255ft 496kts
18-Sep-18 15:25 45.710291 -117.828378 322 36473ft 375kts
18-Sep-18 15:26 45.799642 -117.907415 291 34637ft 373kts
18-Sep-18 15:27 45.855912 -118.040187 284 33098ft 402kts
18-Sep-18 15:28 45.916590 -118.173539 304 33073ft 406kts
18-Sep-18 15:29 45.960648 -118.303865 288 34407ft 357kts
18-Sep-18 15:30 46.015520 -118.435749 284 34247ft 372kts
18-Sep-18 15:31 46.076520 -118.568441 297 32683ft 430kts
18-Sep-18 15:32 46.147435 -118.696821 286 34758ft 381kts
18-Sep-18 15:33 46.186311 -118.825014 274 34836ft 376kts
18-Sep-18 15:34 46.219844 -118.986595 282 31246ft 455kts
18-Sep-18 15:35 46.263697 -119.154545 289 30770ft 432kts
18-Sep-18 15:36 46.321966 -119.304231 293 29042ft 426kts
18-Sep-18 15:37 46.383433 -119.454465 295 28032ft 438kts
18-Sep-18 15:38 46.448918 -119.605194 299 27115ft 456kts
18-Sep-18 15:39 46.511249 -119.758881 290 27892ft 420kts
18-Sep-18 15:40 46.560264 -119.911423 291 26741ft 417kts
18-Sep-18 15:41 46.611463 -120.060268 288 26322ft 402kts
18-Sep-18 15:42 46.654366 -120.208227 289 25571ft 399kts
18-Sep-18 15:43 46.701362 -120.354912 292 24506ft 409kts
18-Sep-18 15:44 46.748795 -120.507502 292 24091ft 421kts
18-Sep-18 15:45 46.795387 -120.665150 297 24374ft 424kts
18-Sep-18 15:46 46.855662 -120.821648 285 23995ft 448kts
18-Sep-18 15:47 46.892059 -120.984493 289 24996ft 408kts
18-Sep-18 15:48 46.931202 -121.134457 291 24031ft 388kts
18-Sep-18 15:49 46.980881 -121.269929 306 23685ft 379kts
18-Sep-18 15:50 47.038161 -121.404381 287 24293ft 375kts
18-Sep-18 15:51 47.069979 -121.547861 271 23463ft 386kts
18-Sep-18 15:52 47.105133 -121.703484 303 19578ft 426kts
18-Sep-18 15:53 47.173558 -121.838253 304 19419ft 395kts
18-Sep-18 15:54 47.224928 -121.976495 300 17451ft 395kts
18-Sep-18 15:55 47.292604 -122.091144 319 15974ft 369kts
18-Sep-18 15:56 47.382544 -122.156427 359 13156ft 384kts
18-Sep-18 15:57 47.480531 -122.150456 0 13039ft 326kts
18-Sep-18 15:58 47.570483 -122.133748 6 11353ft 319kts
18-Sep-18 15:59 47.655360 -122.128089 347 10487ft 291kts
18-Sep-18 16:00 47.731208 -122.121067 2 9693ft 269kts
18-Sep-18 16:01 47.808507 -122.127145 351 8227ft 270kts
18-Sep-18 16:02 47.881079 -122.167023 302 5516ft 313kts
18-Sep-18 16:03 47.843058 -122.266777 185 3074ft 330kts
18-Sep-18 16:04 47.769149 -122.297055 190 3775ft 251kts
18-Sep-18 16:05 47.705209 -122.320326 172 4005ft 228kts
18-Sep-18 16:06 47.639929 -122.308815 161 3620ft 244kts
18-Sep-18 16:07 47.571740 -122.306628 173 2634ft 247kts
18-Sep-18 16:08 47.501558 -122.309905 178 1242ft 254kts
18-Sep-18 16:09 47.433520 -122.312655 183 396ft 234kts
18-Sep-18 16:10 47.400720 -122.312951 77 225ft 0kts

Navigation Log

Ident Type
Flight plan parsing failed, navigation log unavailable